createdAt,value
2023-01-22T00:00:59.266Z,14.00
2023-01-22T00:03:31.604Z,12.00
2023-01-22T00:06:04.413Z,11.65
2023-01-22T00:08:36.886Z,12.28
2023-01-22T00:11:09.009Z,10.63
2023-01-22T00:13:41.372Z,11.57
2023-01-22T00:16:18.608Z,10.30
2023-01-22T00:18:50.950Z,12.13
2023-01-22T00:21:23.212Z,13.48
2023-01-22T00:23:55.328Z,11.20
2023-01-22T00:26:27.517Z,15.18
2023-01-22T00:29:00.107Z,14.80
2023-01-22T00:31:32.774Z,12.03
2023-01-22T00:34:05.183Z,10.82
2023-01-22T00:36:37.598Z,11.45
2023-01-22T00:39:11.212Z,10.70
2023-01-22T00:41:43.814Z,11.65
2023-01-22T00:44:16.737Z,11.75
2023-01-22T00:46:50.069Z,10.72
2023-01-22T00:49:22.194Z,10.78
2023-01-22T00:51:54.277Z,11.83
2023-01-22T00:54:26.862Z,13.25
2023-01-22T00:56:59.433Z,14.63
2023-01-22T00:59:31.904Z,9.83
2023-01-22T01:02:04.345Z,13.03
2023-01-22T01:04:37.820Z,12.68
2023-01-22T01:07:10.209Z,11.40
2023-01-22T01:09:42.738Z,13.85
2023-01-22T01:12:14.840Z,9.85
2023-01-22T01:14:48.189Z,12.55
2023-01-22T01:17:20.328Z,12.95
2023-01-22T01:19:52.585Z,12.55
2023-01-22T01:22:24.705Z,12.15
2023-01-22T01:24:57.916Z,13.03
2023-01-22T01:27:31.847Z,24.50
2023-01-22T01:32:35.185Z,10.10
2023-01-22T01:35:08.149Z,14.55
2023-01-22T01:37:40.091Z,10.85
2023-01-22T01:40:13.061Z,11.57
2023-01-22T01:42:46.188Z,11.90
2023-01-22T01:45:32.993Z,14.63
2023-01-22T01:48:08.216Z,15.18
2023-01-22T01:50:43.299Z,13.18
2023-01-22T01:53:15.575Z,11.55
2023-01-22T01:55:47.712Z,16.25
2023-01-22T01:58:22.836Z,10.58
2023-01-22T02:00:58.166Z,14.85
2023-01-22T02:03:31.426Z,12.78
2023-01-22T02:06:03.851Z,14.53
2023-01-22T02:08:36.590Z,14.78
2023-01-22T02:11:09.313Z,16.90
2023-01-22T02:13:44.624Z,13.90
2023-01-22T02:16:16.869Z,11.25
2023-01-22T02:18:49.011Z,13.98
2023-01-22T02:21:40.863Z,13.75
2023-01-22T02:24:16.100Z,15.98
2023-01-22T02:26:48.250Z,18.00
2023-01-22T02:31:53.345Z,12.82
2023-01-22T02:34:25.703Z,12.88
2023-01-22T02:36:58.061Z,18.77
2023-01-22T02:39:30.770Z,16.35
2023-01-22T02:42:05.350Z,11.22
2023-01-22T02:44:37.683Z,18.65
2023-01-22T02:47:10.886Z,12.73
2023-01-22T02:49:44.528Z,13.65
2023-01-22T02:52:16.710Z,16.42
2023-01-22T02:54:50.049Z,13.55
2023-01-22T02:57:22.662Z,14.65
2023-01-22T02:59:54.893Z,15.75
2023-01-22T03:02:27.898Z,17.82
2023-01-22T03:07:45.376Z,15.60
2023-01-22T03:10:20.982Z,18.12
2023-01-22T03:13:11.336Z,11.88
2023-01-22T03:16:01.284Z,13.15
2023-01-22T03:18:51.251Z,13.68
2023-01-22T03:21:23.440Z,18.17
2023-01-22T03:23:56.330Z,14.43
2023-01-22T03:26:30.525Z,15.68
2023-01-22T03:29:02.987Z,12.55
2023-01-22T03:31:35.537Z,14.05
2023-01-22T03:34:07.985Z,15.63
2023-01-22T03:36:40.154Z,15.20
2023-01-22T03:39:12.829Z,14.87
2023-01-22T03:41:45.268Z,12.45
2023-01-22T03:44:19.020Z,16.60
2023-01-22T03:46:52.911Z,19.82
2023-01-22T03:49:25.220Z,18.55
2023-01-22T03:51:58.728Z,19.45
2023-01-22T03:54:31.278Z,16.15
2023-01-22T03:57:04.466Z,18.45
2023-01-22T03:59:38.102Z,18.17
2023-01-22T04:02:11.658Z,15.10
2023-01-22T04:04:47.138Z,14.15
2023-01-22T04:09:52.556Z,17.87
2023-01-22T04:12:24.605Z,15.50
2023-01-22T04:14:56.728Z,16.27
2023-01-22T04:17:29.375Z,17.65
2023-01-22T04:20:19.622Z,15.30
2023-01-22T04:23:05.391Z,15.48
2023-01-22T04:25:38.569Z,18.40
2023-01-22T04:28:12.973Z,14.28
2023-01-22T04:30:48.222Z,17.25
2023-01-22T04:33:30.941Z,19.35
2023-01-22T04:38:37.214Z,15.08
2023-01-22T04:41:09.746Z,16.02
2023-01-22T04:43:43.709Z,18.77
2023-01-22T04:46:16.889Z,16.62
2023-01-22T04:48:49.322Z,18.37
2023-01-22T04:51:25.017Z,16.50
2023-01-22T04:54:00.034Z,16.42
2023-01-22T04:56:33.075Z,15.35
2023-01-22T04:59:05.906Z,15.32
2023-01-22T05:04:12.641Z,13.25
2023-01-22T05:06:46.277Z,19.67
2023-01-22T05:09:19.123Z,15.83
2023-01-22T05:11:55.917Z,18.87
2023-01-22T05:14:29.242Z,16.07
2023-01-22T05:17:02.543Z,17.85
2023-01-22T05:19:35.916Z,18.30
2023-01-22T05:22:09.958Z,19.45
2023-01-22T05:24:42.324Z,22.85
2023-01-22T05:27:14.783Z,14.58
2023-01-22T05:29:48.842Z,21.37
2023-01-22T05:32:38.998Z,18.52
2023-01-22T05:35:11.511Z,16.42
2023-01-22T05:37:44.193Z,15.95
2023-01-22T05:40:17.975Z,15.13
2023-01-22T05:42:52.466Z,24.47
2023-01-22T05:45:26.163Z,15.20
2023-01-22T05:48:15.602Z,15.50
2023-01-22T05:50:53.703Z,17.37
2023-01-22T05:53:26.004Z,17.17
2023-01-22T05:56:02.959Z,20.25
2023-01-22T05:58:37.111Z,16.95
2023-01-22T06:01:11.830Z,16.23
2023-01-22T06:03:46.664Z,19.95
2023-01-22T06:08:53.589Z,19.60
2023-01-22T06:11:27.632Z,24.07
2023-01-22T06:13:59.765Z,21.33
2023-01-22T06:16:31.777Z,21.33
2023-01-22T06:19:15.077Z,21.15
2023-01-22T06:21:49.121Z,22.60
2023-01-22T06:24:22.280Z,20.32
2023-01-22T06:26:58.926Z,20.00
2023-01-22T06:29:32.926Z,21.20
2023-01-22T06:32:05.765Z,17.05
2023-01-22T06:34:41.742Z,21.25
2023-01-22T06:37:14.506Z,20.32
2023-01-22T06:39:51.972Z,18.73
2023-01-22T06:42:26.384Z,23.22
2023-01-22T06:44:59.741Z,16.12
2023-01-22T06:47:33.718Z,24.55
2023-01-22T06:52:39.336Z,21.42
2023-01-22T06:55:12.374Z,17.35
2023-01-22T06:57:44.914Z,18.92
2023-01-22T07:00:18.921Z,22.25
2023-01-22T07:02:52.527Z,18.57
2023-01-22T07:05:27.697Z,18.32
2023-01-22T07:08:00.031Z,17.73
2023-01-22T07:10:32.624Z,22.27
2023-01-22T07:13:07.074Z,20.72
2023-01-22T07:15:39.629Z,19.25
2023-01-22T07:18:14.733Z,18.57
2023-01-22T07:20:48.845Z,18.95
2023-01-22T07:23:20.849Z,21.40
2023-01-22T07:25:53.244Z,18.62
2023-01-22T07:28:25.756Z,19.75
2023-01-22T07:30:58.881Z,28.15
2023-01-22T07:33:34.372Z,20.43
2023-01-22T07:36:07.744Z,24.90
2023-01-22T07:38:39.886Z,17.00
2023-01-22T07:41:25.108Z,26.10
2023-01-22T07:43:47.555Z,19.20
2023-01-22T07:46:20.461Z,19.65
2023-01-22T07:48:54.512Z,26.50
2023-01-22T07:51:27.102Z,18.23
2023-01-22T07:54:00.183Z,22.07
2023-01-22T07:56:34.638Z,21.42
2023-01-22T07:59:06.874Z,23.87
2023-01-22T08:01:40.604Z,21.55
2023-01-22T08:04:12.806Z,20.90
2023-01-22T08:06:45.357Z,24.35
2023-01-22T08:09:22.542Z,23.00
2023-01-22T08:11:55.384Z,23.77
2023-01-22T08:14:27.534Z,26.20
2023-01-22T08:17:00.203Z,22.55
2023-01-22T08:19:33.835Z,22.67
2023-01-22T08:22:07.343Z,21.35
2023-01-22T08:27:11.815Z,22.20
2023-01-22T08:29:46.950Z,16.02
2023-01-22T08:32:20.997Z,20.95
2023-01-22T08:34:55.069Z,20.17
2023-01-22T08:37:28.533Z,20.27
2023-01-22T08:40:01.292Z,23.07
2023-01-22T08:42:33.707Z,20.55
2023-01-22T08:45:06.527Z,21.87
2023-01-22T08:47:38.681Z,21.65
2023-01-22T08:50:13.803Z,21.15
2023-01-22T08:52:46.829Z,23.18
2023-01-22T08:55:20.182Z,25.05
2023-01-22T08:57:56.680Z,28.62
2023-01-22T09:00:29.741Z,24.60
2023-01-22T09:03:03.984Z,23.85
2023-01-22T09:05:38.024Z,25.57
2023-01-22T09:08:19.740Z,25.57
2023-01-22T09:10:54.607Z,26.02
2023-01-22T09:13:26.924Z,25.10
2023-01-22T09:16:00.569Z,25.52
2023-01-22T09:18:34.483Z,31.20
2023-01-22T09:21:07.470Z,24.77
2023-01-22T09:23:40.450Z,17.87
2023-01-22T09:26:12.928Z,23.38
2023-01-22T09:28:47.475Z,22.40
2023-01-22T09:31:20.748Z,21.35
2023-01-22T09:33:55.426Z,20.05
2023-01-22T09:36:28.549Z,23.30
2023-01-22T09:39:03.204Z,26.97
2023-01-22T09:41:44.266Z,22.30
2023-01-22T09:44:42.912Z,22.73
2023-01-22T09:47:21.278Z,24.87
2023-01-22T09:50:00.867Z,26.15
2023-01-22T09:52:36.859Z,26.48
2023-01-22T09:55:21.588Z,22.58
2023-01-22T09:58:00.814Z,27.20
2023-01-22T10:00:45.239Z,24.40
2023-01-22T10:03:31.708Z,21.07
2023-01-22T10:06:09.499Z,27.48
2023-01-22T10:09:11.245Z,22.15
2023-01-22T10:11:46.289Z,23.92
2023-01-22T10:14:21.509Z,26.10
2023-01-22T10:17:11.420Z,22.22
2023-01-22T10:19:46.618Z,23.35
2023-01-22T10:22:24.537Z,23.35
2023-01-22T10:25:00.081Z,22.98
2023-01-22T10:27:40.979Z,21.90
2023-01-22T10:30:24.509Z,24.00
2023-01-22T10:33:04.848Z,21.43
2023-01-22T10:35:48.377Z,37.10
2023-01-22T10:38:30.302Z,47.30
2023-01-22T10:41:04.864Z,21.93
2023-01-22T10:43:40.455Z,31.80
2023-01-22T10:46:26.696Z,23.45
2023-01-22T10:49:05.805Z,22.13
2023-01-22T10:51:40.898Z,23.22
2023-01-22T10:54:42.111Z,25.20
2023-01-22T10:57:33.807Z,30.92
2023-01-22T11:00:19.695Z,21.60
2023-01-22T11:02:53.862Z,21.68
2023-01-22T11:05:29.249Z,23.90
2023-01-22T11:08:04.779Z,20.35
2023-01-22T11:10:54.659Z,24.80
2023-01-22T11:13:42.089Z,25.48
2023-01-22T11:16:23.408Z,19.35
2023-01-22T11:18:59.257Z,20.05
2023-01-22T11:21:34.858Z,23.77
2023-01-22T11:24:16.202Z,27.67
2023-01-22T11:26:56.992Z,21.25
2023-01-22T11:29:53.391Z,27.02
2023-01-22T11:32:45.551Z,22.17
2023-01-22T11:35:24.206Z,22.50
2023-01-22T11:38:15.416Z,28.85
2023-01-22T11:41:00.032Z,29.07
2023-01-22T11:46:22.595Z,26.70
2023-01-22T11:49:03.688Z,26.50
2023-01-22T11:51:47.893Z,46.75
2023-01-22T11:54:45.602Z,26.33
2023-01-22T11:57:27.444Z,28.80
2023-01-22T12:00:27.877Z,20.97
2023-01-22T12:03:14.014Z,22.25
2023-01-22T12:06:16.238Z,20.50
2023-01-22T12:08:51.471Z,21.35
2023-01-22T12:11:52.595Z,23.85
2023-01-22T12:14:33.651Z,23.18
2023-01-22T12:17:23.987Z,25.97
2023-01-22T12:20:10.508Z,26.25
2023-01-22T12:23:03.702Z,27.22
2023-01-22T12:25:48.408Z,23.65
2023-01-22T12:28:34.829Z,25.25
2023-01-22T12:31:14.894Z,23.30
2023-01-22T12:33:47.175Z,25.60
2023-01-22T12:36:22.108Z,34.50
2023-01-22T12:38:57.331Z,28.07
2023-01-22T12:41:35.819Z,27.77
2023-01-22T12:44:11.873Z,28.10
2023-01-22T12:46:47.759Z,27.42
2023-01-22T12:49:21.067Z,32.60
2023-01-22T12:51:56.103Z,25.57
2023-01-22T12:54:36.140Z,32.20
2023-01-22T12:57:20.788Z,29.72
2023-01-22T12:59:58.575Z,26.48
2023-01-22T13:02:35.044Z,25.20
2023-01-22T13:05:25.133Z,23.10
2023-01-22T13:08:10.263Z,26.15
2023-01-22T13:10:55.072Z,29.57
2023-01-22T13:13:48.608Z,25.37
2023-01-22T13:16:24.456Z,30.02
2023-01-22T13:19:00.620Z,30.82
2023-01-22T13:21:34.262Z,28.45
2023-01-22T13:24:09.746Z,27.82
2023-01-22T13:26:42.182Z,30.23
2023-01-22T13:29:20.772Z,31.30
2023-01-22T13:31:59.678Z,31.90
2023-01-22T13:34:32.593Z,27.62
2023-01-22T13:37:04.896Z,28.10
2023-01-22T13:39:37.172Z,30.52
2023-01-22T13:42:12.602Z,19.87
2023-01-22T13:44:49.190Z,32.38
2023-01-22T13:47:33.133Z,34.15
2023-01-22T13:50:05.628Z,26.17
2023-01-22T13:52:38.256Z,28.50
2023-01-22T13:55:16.745Z,25.08
2023-01-22T13:57:52.226Z,27.80
2023-01-22T14:00:34.230Z,25.12
2023-01-22T14:03:10.457Z,27.40
2023-01-22T14:05:42.568Z,25.70
2023-01-22T14:08:15.452Z,33.10
2023-01-22T14:10:50.873Z,25.68
2023-01-22T14:13:23.856Z,32.48
2023-01-22T14:15:59.826Z,30.30
2023-01-22T14:18:32.187Z,28.87
2023-01-22T14:21:04.924Z,30.55
2023-01-22T14:23:37.100Z,28.75
2023-01-22T14:26:10.403Z,30.00
2023-01-22T14:28:42.574Z,27.13
2023-01-22T14:31:17.561Z,29.75
2023-01-22T14:33:51.023Z,28.07
2023-01-22T14:36:23.995Z,33.10
2023-01-22T14:38:57.864Z,30.12
2023-01-22T14:41:30.122Z,34.00
2023-01-22T14:44:04.538Z,33.80
2023-01-22T14:49:09.810Z,35.65
2023-01-22T14:51:42.689Z,36.53
2023-01-22T14:54:15.269Z,34.15
2023-01-22T14:56:50.016Z,36.83
2023-01-22T14:59:22.271Z,33.00
2023-01-22T15:01:54.816Z,33.15
2023-01-22T15:04:27.441Z,30.50
2023-01-22T15:06:59.742Z,35.00
2023-01-22T15:09:32.252Z,31.87
2023-01-22T15:12:06.171Z,32.78
2023-01-22T15:14:38.544Z,32.03
2023-01-22T15:17:10.775Z,35.45
2023-01-22T15:19:42.833Z,35.85
2023-01-22T15:22:14.998Z,37.33
2023-01-22T15:24:47.415Z,33.45
2023-01-22T15:27:20.565Z,37.58
2023-01-22T15:29:53.416Z,35.50
2023-01-22T15:32:25.812Z,33.67
2023-01-22T15:34:59.048Z,34.15
2023-01-22T15:37:31.542Z,30.65
2023-01-22T15:40:04.286Z,33.83
2023-01-22T15:42:37.225Z,31.48
2023-01-22T15:45:11.734Z,31.77
2023-01-22T15:47:43.797Z,35.78
2023-01-22T15:50:19.898Z,33.13
2023-01-22T15:52:59.419Z,32.40
2023-01-22T15:55:32.125Z,30.50
2023-01-22T15:58:04.598Z,30.10
2023-01-22T16:00:36.762Z,31.48
2023-01-22T16:03:08.933Z,34.67
2023-01-22T16:05:41.338Z,29.87
2023-01-22T16:08:14.003Z,33.50
2023-01-22T16:10:46.553Z,31.62
2023-01-22T16:13:18.913Z,30.95
2023-01-22T16:16:03.599Z,30.90
2023-01-22T16:18:37.023Z,35.73
2023-01-22T16:21:11.931Z,34.75
2023-01-22T16:23:46.091Z,30.85
2023-01-22T16:26:21.364Z,33.75
2023-01-22T16:28:55.580Z,35.43
2023-01-22T16:34:03.617Z,32.03
2023-01-22T16:36:36.260Z,33.18
2023-01-22T16:39:09.192Z,30.82
2023-01-22T16:41:41.396Z,33.78
2023-01-22T16:44:19.094Z,31.40
2023-01-22T16:46:57.281Z,31.30
2023-01-22T16:49:35.137Z,31.77
2023-01-22T16:52:22.054Z,28.42
2023-01-22T16:54:44.168Z,33.42
2023-01-22T16:57:16.267Z,31.02
2023-01-22T16:59:48.408Z,29.35
2023-01-22T17:02:20.801Z,31.12
2023-01-22T17:04:54.146Z,28.55
2023-01-22T17:07:33.544Z,24.25
2023-01-22T17:10:01.927Z,21.25
2023-01-22T17:12:46.992Z,26.62
2023-01-22T17:15:19.995Z,27.62
2023-01-22T17:17:52.442Z,26.82
2023-01-22T17:20:24.920Z,26.70
2023-01-22T17:22:58.248Z,23.30
2023-01-22T17:25:30.981Z,22.25
2023-01-22T17:28:03.223Z,23.85
2023-01-22T17:30:36.539Z,24.70
2023-01-22T17:33:09.092Z,20.68
2023-01-22T17:35:42.262Z,25.70
2023-01-22T17:38:14.998Z,23.83
2023-01-22T17:40:47.496Z,20.52
2023-01-22T17:43:19.808Z,28.25
2023-01-22T17:45:54.052Z,21.68
2023-01-22T17:51:00.161Z,18.10
2023-01-22T17:53:32.273Z,21.25
2023-01-22T17:56:14.021Z,18.35
2023-01-22T17:58:51.683Z,14.78
2023-01-22T18:01:26.036Z,24.27
2023-01-22T18:03:59.814Z,14.50
2023-01-22T18:06:32.825Z,14.80
2023-01-22T18:09:06.543Z,15.93
2023-01-22T18:11:41.085Z,13.65
2023-01-22T18:14:20.027Z,12.43
2023-01-22T18:16:52.348Z,9.03
2023-01-22T18:19:24.833Z,10.78
2023-01-22T18:21:56.834Z,10.50
2023-01-22T18:24:31.040Z,14.93
2023-01-22T18:27:03.265Z,11.33
2023-01-22T18:29:35.914Z,11.25
2023-01-22T18:32:08.463Z,9.70
2023-01-22T18:34:40.859Z,15.03
2023-01-22T18:37:13.443Z,13.28
2023-01-22T18:39:45.608Z,11.20
2023-01-22T18:42:18.144Z,10.82
2023-01-22T18:44:50.070Z,11.80
2023-01-22T18:47:22.375Z,12.33
2023-01-22T18:49:54.420Z,15.68
2023-01-22T18:52:28.703Z,9.35
2023-01-22T18:55:00.813Z,11.38
2023-01-22T18:57:35.923Z,12.88
2023-01-22T19:00:24.837Z,13.28
2023-01-22T19:02:59.139Z,10.53
2023-01-22T19:05:31.450Z,13.98
2023-01-22T19:08:03.901Z,10.98
2023-01-22T19:10:36.216Z,11.35
2023-01-22T19:13:09.861Z,10.18
2023-01-22T19:15:42.105Z,10.78
2023-01-22T19:18:14.204Z,11.50
2023-01-22T19:20:46.274Z,9.10
2023-01-22T19:23:18.421Z,13.98
2023-01-22T19:25:52.062Z,14.13
2023-01-22T19:28:24.115Z,7.53
2023-01-22T19:30:56.271Z,8.88
2023-01-22T19:33:29.313Z,9.18
2023-01-22T19:36:01.445Z,10.35
2023-01-22T19:38:33.666Z,7.42
2023-01-22T19:41:06.324Z,9.23
2023-01-22T19:43:38.944Z,9.78
2023-01-22T19:46:13.597Z,9.78
2023-01-22T19:48:45.696Z,8.53
2023-01-22T19:51:19.043Z,9.00
2023-01-22T19:53:51.296Z,10.77
2023-01-22T19:56:26.391Z,8.95
2023-01-22T19:59:05.427Z,12.43
2023-01-22T20:01:38.078Z,10.65
2023-01-22T20:04:13.272Z,10.28
2023-01-22T20:06:46.087Z,10.48
2023-01-22T20:09:21.971Z,13.45
2023-01-22T20:11:55.885Z,14.28
2023-01-22T20:14:31.080Z,14.78
2023-01-22T20:17:03.986Z,15.78
2023-01-22T20:19:38.363Z,14.93
2023-01-22T20:24:42.949Z,14.75
2023-01-22T20:27:15.250Z,11.60
2023-01-22T20:29:47.232Z,21.60
2023-01-22T20:32:20.616Z,13.18
2023-01-22T20:34:52.633Z,15.33
2023-01-22T20:37:25.528Z,12.78
2023-01-22T20:39:59.114Z,16.93
2023-01-22T20:42:33.265Z,15.60
2023-01-22T20:45:05.917Z,17.40
2023-01-22T20:47:38.316Z,15.10
2023-01-22T20:50:11.977Z,16.67
2023-01-22T20:52:44.846Z,18.70
2023-01-22T20:55:17.547Z,14.47
2023-01-22T20:57:49.689Z,16.52
2023-01-22T21:00:23.138Z,17.20
2023-01-22T21:02:55.089Z,14.05
2023-01-22T21:05:27.523Z,13.40
2023-01-22T21:08:01.209Z,14.38
2023-01-22T21:10:33.484Z,13.22
2023-01-22T21:13:05.628Z,11.97
2023-01-22T21:15:38.228Z,12.33
2023-01-22T21:18:12.036Z,11.80
2023-01-22T21:20:44.257Z,14.58
2023-01-22T21:23:16.933Z,12.20
2023-01-22T21:28:21.635Z,12.28
2023-01-22T21:30:53.955Z,12.70
2023-01-22T21:33:26.486Z,13.78
2023-01-22T21:35:58.766Z,17.80
2023-01-22T21:38:31.333Z,15.58
2023-01-22T21:41:09.070Z,16.70
2023-01-22T21:44:00.833Z,15.32
2023-01-22T21:46:38.655Z,16.67
2023-01-22T21:49:20.948Z,17.62
2023-01-22T21:51:59.374Z,15.90
2023-01-22T21:54:37.569Z,17.62
2023-01-22T21:57:12.211Z,15.55
2023-01-22T21:59:46.944Z,18.87
2023-01-22T22:02:21.338Z,19.30
2023-01-22T22:04:54.695Z,20.27
2023-01-22T22:07:26.825Z,15.05
2023-01-22T22:09:58.817Z,16.02
2023-01-22T22:12:34.285Z,17.80
2023-01-22T22:15:07.090Z,18.27
2023-01-22T22:17:39.505Z,17.48
2023-01-22T22:20:12.483Z,17.92
2023-01-22T22:22:46.116Z,15.93
2023-01-22T22:25:18.371Z,22.40
2023-01-22T22:27:50.590Z,16.27
2023-01-22T22:30:22.914Z,14.45
2023-01-22T22:32:59.083Z,17.45
2023-01-22T22:35:32.132Z,18.25
2023-01-22T22:38:04.199Z,16.05
2023-01-22T22:40:36.114Z,16.95
2023-01-22T22:43:09.249Z,15.28
2023-01-22T22:45:41.409Z,19.42
2023-01-22T22:48:15.485Z,17.30
2023-01-22T22:53:19.513Z,17.77
2023-01-22T22:55:52.700Z,16.70
2023-01-22T22:58:24.767Z,17.10
2023-01-22T23:00:57.127Z,18.48
2023-01-22T23:03:30.813Z,17.35
2023-01-22T23:06:12.214Z,17.48
2023-01-22T23:08:46.899Z,13.80
2023-01-22T23:11:20.017Z,15.53
2023-01-22T23:13:52.641Z,16.27
2023-01-22T23:16:26.165Z,19.50
2023-01-22T23:19:02.987Z,16.25
2023-01-22T23:21:36.890Z,15.78
2023-01-22T23:26:43.058Z,16.27
2023-01-22T23:29:17.982Z,18.80
2023-01-22T23:31:50.439Z,21.25
2023-01-22T23:34:24.016Z,18.92
2023-01-22T23:36:56.359Z,20.15
2023-01-22T23:39:28.740Z,20.68
2023-01-22T23:42:01.012Z,21.97
2023-01-22T23:44:33.559Z,19.67
2023-01-22T23:47:05.611Z,21.17
2023-01-22T23:49:37.994Z,21.42
2023-01-22T23:52:10.099Z,18.62
2023-01-22T23:54:42.364Z,22.07
2023-01-22T23:57:14.631Z,23.15
2023-01-22T23:59:48.238Z,26.50
